Stations météo

Publicité
Dunstaffnage, Grande-Bretagne (99006): Température de l'air & dewpoint: 16.08.2018 00:00:00 - 22.08.2018 00:00:00 (BST)Dunstaffnage, Grande-Bretagne (99006): Température de l'air -20cm: 16.08.2018 00:00:00 - 22.08.2018 00:00:00 (BST)Dunstaffnage, Grande-Bretagne (99006): Vitesse du vent & gusts: 16.08.2018 00:00:00 - 22.08.2018 00:00:00 (BST)Dunstaffnage, Grande-Bretagne (99006): Direction du vent: 16.08.2018 00:00:00 - 22.08.2018 00:00:00 (BST)Dunstaffnage, Grande-Bretagne (99006): Quantités de précipitations: 16.08.2018 00:00:00 - 22.08.2018 00:00:00 (BST)
Date & Time tt [°C] td [°C] tt -20cm [°C] ff [km/h] ff [knt] fx [km/h] fx [knt] dd rr [mm]
22.08.2018 00:00:00 16,1 15,6 - 15 8 - - WSW 5,0
21.08.2018 23:00:00 16,6 15,7 - 16 9 - - SSW 2,4
21.08.2018 22:00:00 16,8 15,8 - 18 10 - - S 1,2
21.08.2018 21:00:00 16,7 15,6 - 15 8 - - SSE 0,4
21.08.2018 20:00:00 16,5 15,2 - 13 7 - - SSE 0,2
21.08.2018 19:00:00 16,7 14,7 - 16 9 - - S 0,0
21.08.2018 18:00:00 17,0 14,5 - 22 12 - - S 0,0
21.08.2018 17:00:00 16,9 14,7 - 16 9 - - S 0,0
21.08.2018 16:00:00 17,1 14,6 - 11 6 - - S 0,0
21.08.2018 15:00:00 16,7 14,3 - 16 9 - - S 0,0
21.08.2018 14:00:00 17,4 13,9 - 15 8 - - S 0,0
21.08.2018 13:00:00 17,9 13,9 - 15 8 - - S 0,0
21.08.2018 12:00:00 15,4 13,9 - 8 4 - - W 0,0
21.08.2018 11:00:00 13,5 12,6 - 5 3 - - NW 0,0
21.08.2018 10:00:00 13,9 13,2 15,0 5 3 - - WNW 0,0
21.08.2018 09:00:00 12,9 12,7 - 4 2 - - ENE 0,0
21.08.2018 08:00:00 11,9 11,7 - 4 2 - - ENE 0,2
21.08.2018 07:00:00 10,7 10,4 - 4 2 - - SW 0,0
21.08.2018 06:00:00 10,6 10,4 - 5 3 - - E 0,0
21.08.2018 05:00:00 8,9 8,6 - 2 1 - - SSW 0,0
21.08.2018 04:00:00 8,1 7,8 - 0 0 - - N 0,0
21.08.2018 03:00:00 7,9 7,5 - 2 1 - - SSW 0,0
21.08.2018 02:00:00 8,5 8,0 - 2 1 - - SSW 0,0
21.08.2018 01:00:00 9,3 8,7 - 2 1 - - S 0,0
21.08.2018 00:00:00 9,6 8,8 - 2 1 - - S 0,0
20.08.2018 23:00:00 10,2 9,2 - 4 2 - - WSW 0,0
20.08.2018 22:00:00 11,4 9,7 - 8 4 - - SSW 0,0
20.08.2018 21:00:00 13,1 10,3 - 9 5 - - W 0,0
20.08.2018 20:00:00 14,8 10,2 - 15 8 - - W 0,0
20.08.2018 19:00:00 16,0 10,8 - 13 7 - - WSW 0,0
20.08.2018 18:00:00 17,3 10,9 - 16 9 - - W 0,0
20.08.2018 17:00:00 18,7 11,0 - 13 7 - - W 0,0
20.08.2018 16:00:00 19,1 10,3 - 11 6 - - WSW 0,0
20.08.2018 15:00:00 18,4 11,4 - 13 7 - - W 0,0
20.08.2018 14:00:00 18,6 12,3 - 11 6 - - W 0,0
20.08.2018 13:00:00 16,1 11,8 - 11 6 - - W 0,0
20.08.2018 12:00:00 15,7 11,3 - 8 4 - - W 0,0
20.08.2018 11:00:00 14,2 10,5 - 4 2 - - NW 0,0
20.08.2018 10:00:00 14,8 14,2 15,0 5 3 - - ENE 0,0
20.08.2018 09:00:00 12,4 12,2 - 8 4 - - ENE 0,0
20.08.2018 08:00:00 10,7 10,5 - 8 4 - - E 0,0
20.08.2018 07:00:00 8,6 8,3 - 2 1 - - ESE 0,0
20.08.2018 06:00:00 8,5 8,1 - 2 1 - - ENE 0,0
20.08.2018 05:00:00 9,0 8,6 - 4 2 - - ENE 0,0
20.08.2018 04:00:00 9,1 8,5 - 4 2 - - NE 0,0
20.08.2018 03:00:00 9,6 8,7 - 2 1 - - W 0,0
20.08.2018 02:00:00 10,7 9,6 - 5 3 - - SW 0,0
20.08.2018 01:00:00 11,2 10,2 - 11 6 - - SW 0,0
20.08.2018 00:00:00 11,2 10,2 - 9 5 - - SW 0,0
19.08.2018 23:00:00 12,0 10,7 - 5 3 - - SSW 0,0
19.08.2018 22:00:00 12,7 10,9 - 8 4 - - W 0,0
19.08.2018 21:00:00 13,4 11,0 - 13 7 - - W 0,0
19.08.2018 20:00:00 14,7 10,8 - 16 9 - - W 0,0
19.08.2018 19:00:00 16,8 11,7 - 21 11 - - W 0,0
19.08.2018 18:00:00 16,1 12,0 - 15 8 - - W 0,0
19.08.2018 17:00:00 17,7 11,9 - 21 11 - - W 0,0
19.08.2018 16:00:00 17,6 12,6 - 13 7 - - W 0,0
19.08.2018 15:00:00 19,0 13,7 - 15 8 - - W 0,0
19.08.2018 14:00:00 16,8 13,2 - 13 7 - - W 0,0
19.08.2018 13:00:00 16,1 12,7 - 15 8 - - WNW 0,0
19.08.2018 12:00:00 16,4 13,3 - 9 5 - - W 0,0
19.08.2018 11:00:00 15,3 12,6 - 9 5 - - NNW 0,0
19.08.2018 10:00:00 13,7 12,0 14,9 9 5 - - NNW 0,0
19.08.2018 09:00:00 13,7 13,3 - 4 2 - - WNW 0,0
19.08.2018 08:00:00 12,9 12,6 - 5 3 - - NNE 0,6
19.08.2018 07:00:00 12,8 12,5 - 4 2 - - NNE 0,4
19.08.2018 06:00:00 12,9 12,6 - 8 4 - - N 1,0
19.08.2018 05:00:00 12,8 12,4 - 4 2 - - N 1,2
19.08.2018 04:00:00 12,7 12,3 - 4 2 - - E 0,6
19.08.2018 03:00:00 12,7 12,2 - 8 4 - - NNE 0,4
19.08.2018 02:00:00 12,8 12,3 - 8 4 - - NE 0,0
19.08.2018 01:00:00 12,9 12,3 - 9 5 - - NE 0,0
19.08.2018 00:00:00 12,8 12,2 - 9 5 - - E 0,2
18.08.2018 23:00:00 12,7 12,0 - 5 3 - - E 0,0
18.08.2018 22:00:00 12,8 11,8 - 4 2 - - SSW 0,2
18.08.2018 21:00:00 12,9 11,7 - 5 3 - - S 0,0
18.08.2018 20:00:00 13,3 12,0 - 5 3 - - SSW 0,0
18.08.2018 19:00:00 13,7 11,9 - 8 4 - - WSW 0,0
18.08.2018 18:00:00 13,8 11,8 - 11 6 - - WSW 0,0
18.08.2018 17:00:00 13,8 11,7 - 16 9 - - SW 0,0
18.08.2018 16:00:00 14,0 11,8 - 11 6 - - WSW 0,0
18.08.2018 15:00:00 14,0 12,0 - 15 8 - - SW 0,0
18.08.2018 14:00:00 13,8 12,3 - 15 8 - - SW 0,0
18.08.2018 13:00:00 13,4 11,4 - 11 6 - - SW 0,0
18.08.2018 12:00:00 14,3 11,2 - 24 13 - - WSW 0,2
18.08.2018 11:00:00 13,7 12,1 - 24 13 - - WSW 0,2
18.08.2018 10:00:00 14,7 12,1 15,0 26 14 - - WSW 0,0
18.08.2018 09:00:00 14,3 12,6 - 24 13 - - WSW 0,0
18.08.2018 08:00:00 13,8 12,1 - 24 13 - - WSW 0,0
18.08.2018 07:00:00 13,7 12,5 - 18 10 - - WSW 0,2
18.08.2018 06:00:00 13,8 12,8 - 21 11 - - WSW 0,2
18.08.2018 05:00:00 14,2 13,0 - 21 11 - - WSW 0,0
18.08.2018 04:00:00 14,3 12,9 - 21 11 - - WSW 0,0
18.08.2018 03:00:00 14,3 12,9 - 22 12 - - WSW 0,0
18.08.2018 02:00:00 14,2 12,7 - 21 11 - - WSW 0,0
18.08.2018 01:00:00 14,0 12,4 - 15 8 - - WSW 0,0
18.08.2018 00:00:00 14,0 12,0 - 15 8 - - WSW 0,0
17.08.2018 23:00:00 14,0 11,6 - 22 12 - - WSW 0,0
17.08.2018 22:00:00 14,1 12,4 - 26 14 - - WSW 0,0
17.08.2018 21:00:00 14,1 11,6 - 26 14 - - WSW 0,0
17.08.2018 20:00:00 14,3 13,2 - 22 12 - - WSW 0,0
17.08.2018 19:00:00 14,3 13,6 - 18 10 - - WSW 0,0
17.08.2018 18:00:00 14,6 14,2 - 21 11 - - WSW 0,2
17.08.2018 17:00:00 14,6 14,2 - 18 10 - - SW 0,2
17.08.2018 16:00:00 14,7 14,1 - 15 8 - - SW 0,8
17.08.2018 15:00:00 14,1 13,2 - 18 10 - - S 0,6
17.08.2018 14:00:00 13,3 12,3 - 24 13 - - S 0,0
17.08.2018 13:00:00 12,7 11,8 - 18 10 - - S 0,4
17.08.2018 12:00:00 12,7 11,8 - 22 12 - - S 0,8
17.08.2018 11:00:00 12,7 11,8 - 18 10 - - S 0,6
17.08.2018 10:00:00 12,6 11,8 15,2 15 8 - - SSW 0,8
17.08.2018 09:00:00 12,5 11,6 - 13 7 - - SW 1,2
17.08.2018 08:00:00 12,6 10,9 - 11 6 - - SSW 0,0
17.08.2018 07:00:00 12,6 10,7 - 13 7 - - WSW 0,0
17.08.2018 06:00:00 12,0 10,4 - 13 7 - - WSW 0,2
17.08.2018 05:00:00 12,1 10,1 - 18 10 - - WSW 0,0
17.08.2018 04:00:00 11,9 10,6 - 5 3 - - SW 0,0
17.08.2018 03:00:00 11,8 10,5 - 18 10 - - WSW 0,4
17.08.2018 02:00:00 12,1 10,5 - 21 11 - - WSW 0,0
17.08.2018 01:00:00 12,1 11,2 - 18 10 - - WSW 0,6
17.08.2018 00:00:00 11,7 10,8 - 8 4 - - SW 0,2
16.08.2018 23:00:00 11,9 11,0 - 13 7 - - WSW 2,0
16.08.2018 22:00:00 12,3 10,5 - 15 8 - - WSW 0,0
16.08.2018 21:00:00 12,9 10,9 - 16 9 - - WSW 0,0
16.08.2018 20:00:00 12,2 10,9 - 9 5 - - SW 1,2
16.08.2018 19:00:00 14,1 10,6 - 16 9 - - WSW 0,0
16.08.2018 18:00:00 14,9 10,6 - 18 10 - - WSW 0,0
16.08.2018 17:00:00 16,1 12,2 - 16 9 - - WSW 0,0
16.08.2018 16:00:00 15,8 10,7 - 22 12 - - WSW 0,0
16.08.2018 15:00:00 16,8 14,0 - 16 9 - - SW 1,0
16.08.2018 14:00:00 14,0 11,3 - 21 11 - - WSW 1,4
16.08.2018 13:00:00 14,2 11,1 - 24 13 - - WSW 0,0
16.08.2018 12:00:00 15,6 12,9 - 21 11 48 26 SW 0,6
16.08.2018 11:00:00 15,0 12,5 - 22 12 - - SW 0,4
16.08.2018 10:00:00 12,7 11,0 15,2 16 9 - - SW 0,4
16.08.2018 09:00:00 13,6 11,5 - 15 8 - - SSW 0,0
16.08.2018 08:00:00 12,3 11,4 - 15 8 - - SW 1,0
16.08.2018 07:00:00 11,8 10,6 - 11 6 - - SSW 0,2
16.08.2018 06:00:00 11,8 10,5 - 13 7 - - SW 0,2
16.08.2018 05:00:00 12,1 11,0 - 11 6 - - SSW 1,2
16.08.2018 04:00:00 12,0 10,5 - 11 6 - - SW 0,0
16.08.2018 03:00:00 11,7 10,2 - 8 4 - - SW 0,0
16.08.2018 02:00:00 11,7 10,4 - 9 5 - - WSW 0,0
16.08.2018 01:00:00 11,8 10,9 - 9 5 - - SW 0,0
16.08.2018 00:00:00 12,6 11,4 - 11 6 - - WSW 0,0

tt = Température de l'air
td = dewpoint
tt -20cm = Température de l'air -20cm
ff = Vitesse du vent
fx = gusts
dd = Direction du vent
rr = Quantités de précipitations

stations d'obs. à proximité